Time;durP1;ratioP1;P1;durP2;ratioP2;P2;SDS_P1;SDS_P2;PMS_P1;PMS_P2;Temp;Humidity;BMP_temperature;BMP_pressure;BME280_temperature;BME280_humidity;BME280_pressure;Samples;Min_cycle;Max_cycle;Signal;HPM_P1;HPM_P2
2021/03/29 00:00:28;;;;;;;13.73;4.57;;;8.90;99.90;;;;;;4930404;28;20148;-73
2021/03/29 00:02:54;;;;;;;14.33;3.90;;;9.00;99.90;;;;;;4931351;29;20032;-73
2021/03/29 00:05:23;;;;;;;12.55;3.80;;;9.00;99.90;;;;;;4930552;28;20360;-73
2021/03/29 00:07:53;;;;;;;11.95;3.63;;;9.00;99.90;;;;;;4931352;29;20028;-73
2021/03/29 00:10:21;;;;;;;12.13;4.45;;;9.10;99.90;;;;;;4931638;29;20489;-73
2021/03/29 00:12:50;;;;;;;14.70;5.40;;;9.20;99.90;;;;;;4931269;29;20159;-73
2021/03/29 00:15:18;;;;;;;11.07;4.43;;;9.00;99.90;;;;;;4930068;29;20028;-73
2021/03/29 00:17:45;;;;;;;12.02;4.63;;;9.00;99.90;;;;;;4930059;29;20482;-73
2021/03/29 00:20:17;;;;;;;13.10;4.97;;;9.00;99.90;;;;;;4930277;28;20028;-73
2021/03/29 00:22:43;;;;;;;9.48;4.25;;;9.00;99.90;;;;;;4931488;29;20107;-73
2021/03/29 00:25:13;;;;;;;14.48;5.55;;;9.00;99.90;;;;;;4931331;29;20036;-73
2021/03/29 00:27:38;;;;;;;9.95;4.93;;;9.00;99.90;;;;;;4931009;29;20107;-73
2021/03/29 00:30:19;;;;;;;15.55;5.13;;;8.90;99.90;;;;;;4931362;28;20459;-73
2021/03/29 00:32:45;;;;;;;;;;;8.90;99.90;;;;;;4930148;28;20067;-73
2021/03/29 00:35:16;;;;;;;12.85;5.07;;;8.90;99.90;;;;;;4931573;29;19913;-73
2021/03/29 00:37:45;;;;;;;12.30;5.22;;;8.70;99.90;;;;;;4931073;29;20038;-73
2021/03/29 00:40:12;;;;;;;10.73;4.82;;;8.80;99.90;;;;;;4931340;29;20070;-73
2021/03/29 00:42:38;;;;;;;11.82;4.38;;;8.80;99.90;;;;;;4931074;29;20086;-73
2021/03/29 00:45:11;;;;;;;18.30;5.50;;;8.90;99.90;;;;;;4929928;28;20093;-73
2021/03/29 00:47:38;;;;;;;11.43;4.13;;;8.80;99.90;;;;;;4930232;29;20024;-73
2021/03/29 00:50:12;;;;;;;11.88;4.90;;;8.80;99.90;;;;;;4931038;29;20023;-73
2021/03/29 00:52:39;;;;;;;14.55;4.30;;;8.70;99.90;;;;;;4930735;29;20077;-73
2021/03/29 00:55:07;;;;;;;14.82;4.60;;;8.60;99.90;;;;;;4931009;29;20054;-73
2021/03/29 00:57:33;;;;;;;11.13;4.35;;;8.60;99.90;;;;;;4930916;29;20046;-73
2021/03/29 01:00:00;;;;;;;10.02;4.07;;;8.60;99.90;;;;;;4931114;29;20057;-73
2021/03/29 01:02:27;;;;;;;15.00;3.60;;;8.70;99.90;;;;;;4930681;29;20031;-73
2021/03/29 01:04:52;;;;;;;11.77;3.55;;;8.70;99.90;;;;;;4931315;29;20102;-73
2021/03/29 01:07:20;;;;;;;6.57;2.58;;;8.60;99.90;;;;;;4930664;28;20447;-73
2021/03/29 01:09:47;;;;;;;10.00;3.03;;;8.60;99.90;;;;;;4930865;29;20027;-73
2021/03/29 01:12:14;;;;;;;10.15;2.70;;;8.70;99.90;;;;;;4930545;29;20445;-73
2021/03/29 01:14:44;;;;;;;8.82;2.60;;;8.60;99.90;;;;;;4930741;29;20390;-73
2021/03/29 01:17:19;;;;;;;9.90;2.65;;;8.60;99.90;;;;;;4929403;28;20031;-73
2021/03/29 01:19:47;;;;;;;7.20;2.17;;;8.60;99.90;;;;;;4930527;29;20504;-73
2021/03/29 01:22:26;;;;;;;8.07;2.50;;;8.60;99.90;;;;;;4930429;28;20020;-73
2021/03/29 01:25:13;;;;;;;8.93;2.50;;;8.50;99.90;;;;;;4930578;29;20576;-72
2021/03/29 01:27:50;;;;;;;8.98;2.53;;;8.50;99.90;;;;;;4929747;28;20116;-73
2021/03/29 01:30:17;;;;;;;9.63;2.60;;;8.30;99.90;;;;;;4930513;29;20043;-72
2021/03/29 01:32:45;;;;;;;14.95;2.53;;;8.20;99.90;;;;;;4930341;29;20020;-73
2021/03/29 01:35:20;;;;;;;8.13;2.33;;;8.20;99.90;;;;;;4928195;29;20027;-73
2021/03/29 01:37:47;;;;;;;12.75;2.88;;;8.20;99.90;;;;;;4929202;29;20035;-73
2021/03/29 01:40:15;;;;;;;8.85;2.20;;;8.10;99.90;;;;;;4929162;28;20027;-73
2021/03/29 01:42:42;;;;;;;8.57;2.20;;;8.00;99.90;;;;;;4930064;29;20085;-73
2021/03/29 01:45:10;;;;;;;10.27;2.50;;;8.10;99.90;;;;;;4930654;29;20055;-73
2021/03/29 01:47:36;;;;;;;8.32;2.15;;;8.00;99.90;;;;;;4930124;29;20075;-73
2021/03/29 01:50:03;;;;;;;8.90;2.50;;;8.10;99.90;;;;;;4930193;29;20031;-73
2021/03/29 01:52:29;;;;;;;8.32;2.40;;;8.00;99.90;;;;;;4929983;29;20020;-72
2021/03/29 01:54:55;;;;;;;9.68;2.67;;;7.70;99.90;;;;;;4929009;28;20508;-73
2021/03/29 01:57:20;;;;;;;8.80;2.55;;;7.60;99.90;;;;;;4930658;29;20028;-73
2021/03/29 01:59:46;;;;;;;6.13;2.22;;;7.60;99.90;;;;;;4933752;28;20023;-72
2021/03/29 02:02:12;;;;;;;8.38;2.10;;;7.50;99.90;;;;;;4933166;28;20118;-73
2021/03/29 02:04:38;;;;;;;6.82;2.00;;;7.50;99.90;;;;;;4933074;29;20046;-73
2021/03/29 02:07:06;;;;;;;10.02;2.20;;;7.50;99.90;;;;;;4932159;28;20537;-73
2021/03/29 02:09:32;;;;;;;7.30;2.35;;;7.40;99.90;;;;;;4932351;29;20093;-73
2021/03/29 02:11:59;;;;;;;11.20;2.05;;;7.40;99.90;;;;;;4933392;29;20024;-73
2021/03/29 02:14:27;;;;;;;9.23;2.30;;;7.40;99.90;;;;;;4932491;29;20052;-73
2021/03/29 02:16:56;;;;;;;11.65;2.67;;;7.40;99.90;;;;;;4933786;29;20030;-73
2021/03/29 02:19:23;;;;;;;7.22;2.28;;;7.50;99.90;;;;;;4932059;29;20028;-74
2021/03/29 02:21:49;;;;;;;9.32;2.30;;;7.60;99.90;;;;;;4931788;28;20043;-73
2021/03/29 02:24:15;;;;;;;6.85;2.28;;;7.60;99.90;;;;;;4933303;29;20106;-73
2021/03/29 02:26:43;;;;;;;6.28;1.90;;;7.60;99.90;;;;;;4932952;28;20099;-72
2021/03/29 02:29:10;;;;;;;11.10;2.22;;;7.70;99.90;;;;;;4933132;29;20115;-73
2021/03/29 02:31:36;;;;;;;8.77;2.28;;;7.70;99.90;;;;;;4931619;29;20032;-72
2021/03/29 02:34:04;;;;;;;9.82;2.35;;;7.70;99.90;;;;;;4931818;28;20482;-73
2021/03/29 02:36:31;;;;;;;13.68;2.65;;;7.70;99.90;;;;;;4932925;29;20359;-73
2021/03/29 02:38:57;;;;;;;8.65;1.88;;;7.80;99.90;;;;;;4932889;29;20391;-73
2021/03/29 02:41:28;;;;;;;8.68;2.20;;;7.80;99.90;;;;;;4932704;29;20028;-73
2021/03/29 02:43:55;;;;;;;6.93;2.00;;;7.70;99.90;;;;;;4932957;29;20035;-72
2021/03/29 02:46:27;;;;;;;9.48;2.10;;;7.60;99.90;;;;;;4932828;29;20431;-73
2021/03/29 02:48:55;;;;;;;9.18;2.97;;;7.60;99.90;;;;;;4932618;29;20024;-73
2021/03/29 02:51:21;;;;;;;7.68;2.20;;;7.60;99.90;;;;;;4932589;29;20146;-73
2021/03/29 02:53:50;;;;;;;12.35;2.15;;;7.60;99.90;;;;;;4932699;29;20445;-73
2021/03/29 02:56:19;;;;;;;10.35;2.25;;;7.60;99.90;;;;;;4932561;29;20027;-72
2021/03/29 02:58:48;;;;;;;15.23;2.43;;;7.70;99.90;;;;;;4933091;29;20683;-73
2021/03/29 03:01:16;;;;;;;10.70;2.25;;;7.70;99.90;;;;;;4932362;29;20032;-74
2021/03/29 03:03:43;;;;;;;11.10;1.90;;;7.70;99.90;;;;;;4932554;29;20106;-72
2021/03/29 03:06:09;;;;;;;8.95;2.25;;;7.70;99.90;;;;;;4932541;29;20034;-72
2021/03/29 03:08:38;;;;;;;11.27;2.38;;;7.60;99.90;;;;;;4932237;29;20067;-73
2021/03/29 03:11:09;;;;;;;8.60;2.33;;;7.60;99.90;;;;;;4930915;29;20019;-74
2021/03/29 03:13:36;;;;;;;9.43;2.25;;;7.50;99.90;;;;;;4929064;29;20042;-74
2021/03/29 03:16:04;;;;;;;8.40;2.30;;;7.40;99.90;;;;;;4931411;28;20410;-74
2021/03/29 03:18:30;;;;;;;9.23;2.17;;;7.30;99.90;;;;;;4928598;28;20066;-74
2021/03/29 03:20:55;;;;;;;7.18;2.40;;;7.20;99.90;;;;;;4931167;28;20466;-74
2021/03/29 03:23:21;;;;;;;11.70;2.03;;;7.10;99.90;;;;;;4931000;29;20114;-74
2021/03/29 03:25:49;;;;;;;7.15;1.90;;;7.20;99.90;;;;;;4929820;28;20113;-74
2021/03/29 03:28:17;;;;;;;10.18;1.90;;;7.20;99.90;;;;;;4929541;28;20061;-74
2021/03/29 03:30:46;;;;;;;8.48;2.40;;;7.20;99.90;;;;;;4929661;28;20118;-73
2021/03/29 03:33:14;;;;;;;7.00;2.08;;;7.30;99.90;;;;;;4928365;28;20056;-74
2021/03/29 03:35:42;;;;;;;13.38;2.78;;;7.30;99.90;;;;;;4929781;29;20030;-74
2021/03/29 03:38:15;;;;;;;8.80;2.17;;;7.30;99.90;;;;;;4929435;28;20688;-74
2021/03/29 03:40:44;;;;;;;9.95;2.33;;;7.40;99.90;;;;;;4930918;28;20051;-74
2021/03/29 03:43:16;;;;;;;9.48;2.40;;;7.40;99.90;;;;;;4929206;28;20031;-74
2021/03/29 03:45:49;;;;;;;7.50;2.00;;;7.50;99.90;;;;;;4930752;29;20063;-74
2021/03/29 03:48:18;;;;;;;9.77;2.00;;;7.50;99.90;;;;;;4927292;28;20024;-74
2021/03/29 03:50:49;;;;;;;11.48;2.00;;;7.50;99.90;;;;;;4929366;28;20062;-74
2021/03/29 03:53:16;;;;;;;14.35;2.38;;;7.50;99.90;;;;;;4928445;29;20016;-74
2021/03/29 03:55:42;;;;;;;9.85;2.15;;;7.60;99.90;;;;;;4929524;28;20347;-74
2021/03/29 03:58:10;;;;;;;9.90;2.20;;;7.60;99.90;;;;;;4930458;28;20098;-74
2021/03/29 04:00:36;;;;;;;10.20;3.63;;;7.50;99.90;;;;;;4930525;29;20521;-74
2021/03/29 04:03:02;;;;;;;10.48;3.92;;;7.60;99.90;;;;;;4930252;28;20079;-74
2021/03/29 04:05:27;;;;;;;8.82;3.13;;;7.60;99.90;;;;;;4929306;28;20090;-74
2021/03/29 04:07:55;;;;;;;14.80;4.57;;;7.50;99.90;;;;;;4929216;28;20123;-74
2021/03/29 04:10:23;;;;;;;14.40;4.68;;;7.50;99.90;;;;;;4930605;28;20077;-74
2021/03/29 04:12:55;;;;;;;17.38;5.57;;;7.50;99.90;;;;;;4930485;29;20016;-74
2021/03/29 04:15:21;;;;;;;17.63;5.43;;;7.50;99.90;;;;;;4930699;29;20023;-74
2021/03/29 04:17:48;;;;;;;14.00;5.28;;;7.40;99.90;;;;;;4929388;28;20031;-74
2021/03/29 04:20:15;;;;;;;16.58;5.28;;;7.40;99.90;;;;;;4930330;28;20036;-74
2021/03/29 04:22:41;;;;;;;11.75;4.32;;;7.40;99.90;;;;;;4929403;29;20042;-74
2021/03/29 04:25:09;;;;;;;11.85;4.13;;;7.30;99.90;;;;;;4930412;29;20024;-74
2021/03/29 04:27:35;;;;;;;11.23;4.30;;;7.30;99.90;;;;;;4928937;28;20058;-74
2021/03/29 04:30:09;;;;;;;11.68;4.25;;;7.40;99.90;;;;;;4930664;29;20417;-74
2021/03/29 04:32:35;;;;;;;9.63;3.55;;;7.40;99.90;;;;;;4929874;29;20030;-74
2021/03/29 04:35:01;;;;;;;11.52;3.47;;;7.30;99.90;;;;;;4931350;28;20031;-74
2021/03/29 04:37:26;;;;;;;16.27;3.65;;;7.20;99.90;;;;;;4931220;28;20027;-74
2021/03/29 04:39:52;;;;;;;12.13;3.53;;;7.10;99.90;;;;;;4931387;28;20030;-74
2021/03/29 04:42:18;;;;;;;10.35;4.07;;;7.10;99.90;;;;;;4929814;28;20031;-74
2021/03/29 04:44:44;;;;;;;14.48;5.50;;;7.20;99.90;;;;;;4931194;28;20035;-74
2021/03/29 04:47:10;;;;;;;13.90;6.30;;;7.30;99.90;;;;;;4929871;29;20389;-74
2021/03/29 04:49:36;;;;;;;15.07;6.80;;;7.20;99.90;;;;;;4931146;28;20114;-74
2021/03/29 04:52:02;;;;;;;13.70;6.50;;;7.20;99.90;;;;;;4930039;28;20056;-74
2021/03/29 04:54:28;;;;;;;8.60;3.17;;;7.20;99.90;;;;;;4931202;28;20039;-74
2021/03/29 04:56:53;;;;;;;13.30;4.68;;;7.20;99.90;;;;;;4931207;28;20033;-74
2021/03/29 04:59:19;;;;;;;12.35;5.00;;;7.20;99.90;;;;;;4931325;28;20074;-74
2021/03/29 05:01:44;;;;;;;15.95;5.40;;;7.20;99.90;;;;;;4930922;29;20035;-73
2021/03/29 05:04:10;;;;;;;8.00;2.75;;;7.30;99.90;;;;;;4931131;29;20028;-74
2021/03/29 05:06:35;;;;;;;9.18;4.15;;;7.20;99.90;;;;;;4929717;28;20077;-72
2021/03/29 05:09:01;;;;;;;9.13;2.97;;;7.20;99.90;;;;;;4941449;28;20039;-73
2021/03/29 05:11:34;;;;;;;12.02;3.55;;;7.10;99.90;;;;;;4948549;29;20435;-73
2021/03/29 05:14:00;;;;;;;10.45;4.45;;;7.10;99.90;;;;;;4948759;28;20023;-72
2021/03/29 05:16:25;;;;;;;12.32;5.57;;;7.30;99.90;;;;;;4949849;28;20520;-72
2021/03/29 05:18:51;;;;;;;10.98;4.40;;;7.30;99.90;;;;;;4949890;28;20043;-73
2021/03/29 05:21:17;;;;;;;10.90;4.88;;;7.20;99.90;;;;;;4949721;28;20031;-72
2021/03/29 05:23:42;;;;;;;12.55;4.40;;;7.20;99.90;;;;;;4949833;28;20481;-73
2021/03/29 05:26:08;;;;;;;18.35;6.95;;;7.10;99.90;;;;;;4948336;28;20031;-72
2021/03/29 05:28:33;;;;;;;15.95;6.75;;;7.00;99.90;;;;;;4948513;28;20023;-72
2021/03/29 05:30:59;;;;;;;18.08;6.88;;;6.90;99.90;;;;;;4949314;28;20027;-73
2021/03/29 05:33:24;;;;;;;17.42;7.30;;;6.90;99.90;;;;;;4951339;28;20023;-74
2021/03/29 05:35:50;;;;;;;20.15;7.22;;;6.90;99.90;;;;;;4951730;28;20027;-74
2021/03/29 05:38:15;;;;;;;22.52;8.48;;;6.90;99.90;;;;;;4953135;28;20482;-73
2021/03/29 05:40:41;;;;;;;26.58;9.00;;;7.00;99.90;;;;;;4951736;28;20111;-73
2021/03/29 05:43:07;;;;;;;20.27;7.35;;;7.00;99.90;;;;;;4952805;28;20107;-73
2021/03/29 05:45:35;;;;;;;20.90;6.55;;;7.10;99.90;;;;;;4952899;28;20032;-72
2021/03/29 05:48:01;;;;;;;20.85;7.07;;;7.30;99.90;;;;;;4952689;28;20036;-73
2021/03/29 05:50:26;;;;;;;16.40;6.75;;;7.40;99.90;;;;;;4952892;28;20600;-72
2021/03/29 05:52:52;;;;;;;23.48;9.95;;;7.60;99.90;;;;;;4952621;29;20019;-72
2021/03/29 05:55:23;;;;;;;24.98;11.07;;;7.70;99.90;;;;;;4952831;28;20027;-73
2021/03/29 06:00:34;;;;;;;18.73;7.22;;;8.00;99.90;;;;;;4952763;28;20020;-73
2021/03/29 06:03:19;;;;;;;18.75;6.32;;;8.20;99.90;;;;;;4951109;29;20037;-72
2021/03/29 06:05:45;;;;;;;11.90;4.03;;;8.30;99.90;;;;;;4952647;28;20027;-73
2021/03/29 06:08:11;;;;;;;13.30;5.30;;;8.50;99.90;;;;;;4951150;29;20122;-73
2021/03/29 06:10:37;;;;;;;14.73;5.90;;;8.60;99.90;;;;;;4952644;28;20059;-73
2021/03/29 06:13:17;;;;;;;15.48;4.47;;;8.70;99.90;;;;;;4952262;28;20585;-73
2021/03/29 06:15:44;;;;;;;12.90;3.60;;;8.80;99.90;;;;;;4952526;28;20034;-72
2021/03/29 06:18:11;;;;;;;13.23;3.42;;;9.00;99.90;;;;;;4937492;28;20031;-73
2021/03/29 06:21:00;;;;;;;14.57;3.65;;;9.20;99.90;;;;;;4932004;28;20027;-73
2021/03/29 06:23:26;;;;;;;16.70;4.07;;;9.40;99.90;;;;;;4931635;29;20389;-73
2021/03/29 06:26:12;;;;;;;15.52;4.18;;;9.60;99.90;;;;;;4933031;28;20035;-73
2021/03/29 06:28:37;;;;;;;11.60;3.80;;;9.80;99.90;;;;;;4932903;29;20454;-73
2021/03/29 06:31:27;;;;;;;10.50;3.20;;;10.00;99.90;;;;;;4933051;28;20103;-73
2021/03/29 06:33:53;;;;;;;10.57;3.33;;;10.20;99.40;;;;;;4932939;29;20027;-72
2021/03/29 06:36:37;;;;;;;16.73;3.75;;;10.20;99.30;;;;;;4932974;28;20431;-72
2021/03/29 06:39:20;;;;;;;15.15;4.13;;;10.30;99.20;;;;;;4932988;28;20027;-73
2021/03/29 06:41:56;;;;;;;14.52;4.00;;;10.40;98.40;;;;;;4931582;29;20097;-75
2021/03/29 06:44:30;;;;;;;14.23;3.83;;;10.40;98.70;;;;;;4931906;28;20027;-72
2021/03/29 06:47:14;;;;;;;14.90;4.55;;;10.30;98.80;;;;;;4931544;28;20038;-73
2021/03/29 06:49:48;;;;;;;12.88;4.45;;;10.40;98.70;;;;;;4931557;28;20063;-73
2021/03/29 06:52:28;;;;;;;16.85;4.10;;;10.50;98.80;;;;;;4932653;29;20031;-73
2021/03/29 06:55:14;;;;;;;12.18;4.32;;;10.70;98.10;;;;;;4932809;29;20176;-74
2021/03/29 06:57:40;;;;;;;11.80;4.07;;;10.80;98.20;;;;;;4932544;28;20097;-73
2021/03/29 07:00:11;;;;;;;15.77;4.03;;;11.00;98.40;;;;;;4932721;28;20375;-74
2021/03/29 07:02:42;;;;;;;13.10;4.30;;;11.00;97.80;;;;;;4931249;29;20036;-74
2021/03/29 07:05:09;;;;;;;16.92;4.82;;;11.00;98.30;;;;;;4932696;28;20023;-73
2021/03/29 07:07:37;;;;;;;7.40;3.20;;;11.00;96.90;;;;;;4932138;29;20042;-73
2021/03/29 07:10:06;;;;;;;14.25;4.30;;;11.00;97.40;;;;;;4932181;28;20066;-73
2021/03/29 07:12:37;;;;;;;16.45;4.28;;;10.90;97.00;;;;;;4931509;28;20054;-73
2021/03/29 07:15:08;;;;;;;13.68;3.92;;;10.80;97.80;;;;;;4932031;29;20024;-73
2021/03/29 07:17:37;;;;;;;19.20;4.18;;;10.80;98.60;;;;;;4932059;29;20569;-73
2021/03/29 07:20:05;;;;;;;13.07;3.80;;;10.90;97.70;;;;;;4932441;28;20028;-73
2021/03/29 07:22:31;;;;;;;19.55;4.32;;;11.00;98.00;;;;;;4930869;29;20028;-73
2021/03/29 07:25:03;;;;;;;14.48;3.75;;;11.20;97.60;;;;;;4932377;28;20030;-73
2021/03/29 07:27:31;;;;;;;15.90;4.68;;;11.20;97.00;;;;;;4932415;28;20036;-73
2021/03/29 07:29:57;;;;;;;11.32;3.42;;;11.20;96.50;;;;;;4932323;28;20027;-73
2021/03/29 07:32:51;;;;;;;15.75;4.32;;;11.30;97.30;;;;;;4930686;28;20027;-72
2021/03/29 07:35:19;;;;;;;11.02;3.55;;;11.40;97.10;;;;;;4932378;29;20119;-73
2021/03/29 07:37:57;;;;;;;13.43;3.67;;;11.60;96.60;;;;;;4931983;29;20158;-73
2021/03/29 07:40:23;;;;;;;15.40;3.65;;;11.80;96.60;;;;;;4930934;28;20028;-73
2021/03/29 07:42:51;;;;;;;11.55;4.15;;;11.90;95.60;;;;;;4930661;28;20042;-72
2021/03/29 07:45:24;;;;;;;16.05;3.97;;;12.20;96.50;;;;;;4932138;28;20024;-72
2021/03/29 07:47:55;;;;;;;13.95;3.78;;;12.40;92.50;;;;;;4931934;29;20035;-72
2021/03/29 07:50:23;;;;;;;12.52;3.97;;;12.90;88.20;;;;;;4932003;29;20020;-73
2021/03/29 07:52:52;;;;;;;13.32;3.53;;;13.20;85.60;;;;;;4931410;28;20051;-73
2021/03/29 07:55:22;;;;;;;13.75;4.13;;;13.20;90.00;;;;;;4930239;28;20738;-72
2021/03/29 07:57:51;;;;;;;13.75;4.47;;;13.30;86.20;;;;;;4931743;28;20078;-73
2021/03/29 08:00:25;;;;;;;15.18;3.92;;;13.50;82.90;;;;;;4931853;28;20107;-72
2021/03/29 08:02:55;;;;;;;14.10;4.22;;;13.60;81.30;;;;;;4929929;29;20028;-72
2021/03/29 08:05:46;;;;;;;11.13;4.05;;;13.70;80.90;;;;;;4931735;28;20043;-72
2021/03/29 08:08:27;;;;;;;13.70;3.70;;;13.70;78.20;;;;;;4930163;28;20174;-72
2021/03/29 08:11:14;;;;;;;13.70;3.58;;;13.80;77.30;;;;;;4911948;28;20016;-73
2021/03/29 08:13:55;;;;;;;14.70;3.95;;;13.70;78.80;;;;;;4919758;28;20024;-73
2021/03/29 08:16:24;;;;;;;13.95;3.80;;;13.80;79.80;;;;;;4930308;29;20070;-73
2021/03/29 08:19:15;;;;;;;13.35;4.03;;;13.90;78.60;;;;;;4929585;28;20028;-73
2021/03/29 08:21:46;;;;;;;15.98;4.10;;;14.10;77.50;;;;;;4920310;28;20434;-73
2021/03/29 08:24:39;;;;;;;12.10;3.67;;;14.40;74.90;;;;;;4928886;28;20032;-73
2021/03/29 08:27:12;;;;;;;17.95;4.32;;;14.50;79.60;;;;;;4930542;28;20446;-73
2021/03/29 08:29:41;;;;;;;14.32;3.28;;;14.60;74.90;;;;;;4930631;29;20027;-71
2021/03/29 08:32:31;;;;;;;16.88;3.55;;;14.70;75.00;;;;;;4930501;28;20405;-71
2021/03/29 08:35:10;;;;;;;14.68;4.05;;;14.80;76.00;;;;;;4929372;28;20047;-71
2021/03/29 08:37:42;;;;;;;14.88;4.28;;;14.80;75.60;;;;;;4925703;28;20021;-71
2021/03/29 08:40:11;;;;;;;15.55;4.00;;;14.80;75.50;;;;;;4925012;28;20507;-71
2021/03/29 08:42:38;;;;;;;12.70;3.85;;;15.00;73.70;;;;;;4925654;29;20486;-71
2021/03/29 08:45:10;;;;;;;13.35;4.38;;;15.00;72.70;;;;;;4929933;28;20062;-71
2021/03/29 08:47:43;;;;;;;13.35;4.07;;;15.10;73.90;;;;;;4929557;29;20105;-72
2021/03/29 08:50:12;;;;;;;13.30;3.80;;;15.20;72.40;;;;;;4929690;29;20399;-71
2021/03/29 08:52:46;;;;;;;15.13;4.40;;;15.10;71.00;;;;;;4930684;28;20058;-71
2021/03/29 08:55:33;;;;;;;13.35;3.92;;;15.20;70.40;;;;;;4929769;28;20054;-71
2021/03/29 08:57:59;;;;;;;17.92;5.25;;;15.20;71.50;;;;;;4929364;29;20066;-71
2021/03/29 09:00:29;;;;;;;10.65;3.78;;;15.20;70.00;;;;;;4930770;28;20055;-71
2021/03/29 09:02:55;;;;;;;;;;;15.40;70.70;;;;;;4929767;29;20441;-71
2021/03/29 09:05:22;;;;;;;9.77;3.83;;;15.60;69.30;;;;;;4930841;28;20268;-71
2021/03/29 09:07:52;;;;;;;16.88;4.63;;;15.70;68.60;;;;;;4931748;28;20482;-71
2021/03/29 09:10:17;;;;;;;11.55;3.80;;;15.70;67.90;;;;;;4934079;28;20387;-72
2021/03/29 09:12:44;;;;;;;10.15;3.58;;;15.70;66.60;;;;;;4933971;28;20102;-71
2021/03/29 09:15:14;;;;;;;24.58;4.75;;;15.80;64.00;;;;;;4932954;28;20051;-71
2021/03/29 09:17:40;;;;;;;10.63;3.55;;;15.90;65.30;;;;;;4934275;28;20030;-71
2021/03/29 09:20:17;;;;;;;11.23;4.13;;;16.00;63.80;;;;;;4934279;28;20401;-71
2021/03/29 09:22:43;;;;;;;19.25;5.47;;;16.00;62.90;;;;;;4933943;29;20020;-71
2021/03/29 09:25:09;;;;;;;18.30;4.10;;;16.00;64.40;;;;;;4934151;28;20031;-72
2021/03/29 09:27:40;;;;;;;17.65;4.55;;;16.10;62.20;;;;;;4932737;28;20437;-72
2021/03/29 09:30:09;;;;;;;14.13;3.97;;;16.20;61.80;;;;;;4934457;29;20497;-71
2021/03/29 09:32:38;;;;;;;14.45;3.50;;;16.40;62.10;;;;;;4933951;29;20043;-72
2021/03/29 09:35:04;;;;;;;12.93;4.00;;;16.50;62.00;;;;;;4932724;28;20023;-71
2021/03/29 09:37:30;;;;;;;10.35;3.65;;;16.70;62.30;;;;;;4933852;28;20490;-71
2021/03/29 09:40:06;;;;;;;18.10;4.32;;;16.90;59.30;;;;;;4932552;28;20034;-71
2021/03/29 09:42:49;;;;;;;11.95;3.95;;;17.10;59.80;;;;;;4933507;29;20489;-72
2021/03/29 09:45:26;;;;;;;9.10;3.05;;;17.10;60.20;;;;;;4933814;29;20042;-71
2021/03/29 09:47:59;;;;;;;18.00;3.83;;;17.20;56.30;;;;;;4932524;29;20449;-72
2021/03/29 09:50:36;;;;;;;12.25;3.35;;;17.20;55.80;;;;;;4932426;28;20024;-72
2021/03/29 09:53:12;;;;;;;16.63;4.18;;;17.20;55.70;;;;;;4932124;29;20081;-72
2021/03/29 09:55:57;;;;;;;12.35;3.58;;;17.20;57.20;;;;;;4934033;28;20482;-72
2021/03/29 09:58:31;;;;;;;9.35;3.42;;;17.40;56.30;;;;;;4933451;29;20102;-72
2021/03/29 10:01:02;;;;;;;11.18;3.38;;;17.50;58.00;;;;;;4932219;29;20102;-72
2021/03/29 10:03:28;;;;;;;15.23;3.63;;;17.70;54.00;;;;;;4932050;28;20039;-72
2021/03/29 10:05:55;;;;;;;12.90;3.05;;;17.70;54.40;;;;;;4932036;28;20556;-72
2021/03/29 10:08:28;;;;;;;11.52;3.25;;;17.70;53.00;;;;;;4931920;28;20035;-72
2021/03/29 10:11:05;;;;;;;10.60;3.13;;;17.70;53.70;;;;;;4933500;28;20098;-72
2021/03/29 10:13:39;;;;;;;9.50;2.65;;;17.70;55.00;;;;;;4933144;29;20024;-72
2021/03/29 10:16:22;;;;;;;7.47;2.10;;;17.60;55.50;;;;;;4931969;29;20020;-72
2021/03/29 10:19:04;;;;;;;11.02;2.55;;;17.70;54.50;;;;;;4933103;28;20038;-71
2021/03/29 10:21:31;;;;;;;8.70;2.28;;;17.60;56.20;;;;;;4931660;29;20055;-72
2021/03/29 10:24:15;;;;;;;7.18;2.10;;;17.70;53.70;;;;;;4931818;28;20028;-72
2021/03/29 10:26:53;;;;;;;9.00;2.28;;;17.70;53.50;;;;;;4931620;28;20047;-72
2021/03/29 10:29:36;;;;;;;9.10;2.50;;;17.60;54.70;;;;;;4931650;28;20020;-72
2021/03/29 10:32:04;;;;;;;6.50;2.17;;;17.60;53.60;;;;;;4931534;29;20031;-72
2021/03/29 10:34:29;;;;;;;8.90;2.08;;;17.80;53.70;;;;;;4931561;28;20028;-71
2021/03/29 10:36:55;;;;;;;6.68;1.90;;;18.10;52.60;;;;;;4933166;28;20031;-72
2021/03/29 10:39:20;;;;;;;9.93;2.30;;;18.40;54.20;;;;;;4931706;28;20031;-72
2021/03/29 10:41:46;;;;;;;7.57;2.22;;;18.40;53.10;;;;;;4932578;28;20031;-72
2021/03/29 10:44:11;;;;;;;9.07;1.90;;;18.30;51.90;;;;;;4932871;29;20036;-72
2021/03/29 10:46:37;;;;;;;6.50;1.73;;;18.10;51.50;;;;;;4932687;28;20545;-72
2021/03/29 10:49:03;;;;;;;7.45;1.98;;;18.10;50.80;;;;;;4932733;28;20104;-71
2021/03/29 10:51:28;;;;;;;6.88;1.70;;;18.00;50.10;;;;;;4932391;28;20105;-72
2021/03/29 10:53:54;;;;;;;6.10;1.60;;;18.00;51.00;;;;;;4931644;29;20020;-72
2021/03/29 10:56:19;;;;;;;6.72;2.13;;;18.00;48.90;;;;;;4932508;28;20031;-71
2021/03/29 10:58:45;;;;;;;7.00;1.85;;;18.10;50.90;;;;;;4932497;28;20038;-72
2021/03/29 11:01:10;;;;;;;6.90;1.63;;;18.00;49.10;;;;;;4932729;28;20027;-72
2021/03/29 11:03:36;;;;;;;6.80;1.75;;;18.00;48.00;;;;;;4932396;28;20565;-72
2021/03/29 11:06:01;;;;;;;6.63;1.60;;;18.00;47.20;;;;;;4932541;28;20027;-72
2021/03/29 11:08:27;;;;;;;5.65;1.80;;;18.10;46.40;;;;;;4932452;29;20028;-72
2021/03/29 11:10:52;;;;;;;6.40;1.40;;;18.30;44.50;;;;;;4931148;28;20367;-72
2021/03/29 11:13:18;;;;;;;6.40;1.40;;;18.40;45.30;;;;;;4932150;28;20024;-71
2021/03/29 11:15:44;;;;;;;4.85;1.52;;;18.40;44.00;;;;;;4931101;28;20031;-71
2021/03/29 11:18:11;;;;;;;5.97;1.40;;;18.50;43.40;;;;;;4932251;29;20456;-72
2021/03/29 11:20:37;;;;;;;3.80;1.27;;;18.50;43.90;;;;;;4932404;28;20020;-72
2021/03/29 11:23:02;;;;;;;7.10;1.75;;;18.40;43.30;;;;;;4931976;28;20039;-71
2021/03/29 11:25:28;;;;;;;6.97;1.60;;;18.40;42.50;;;;;;4932264;28;20082;-71
2021/03/29 11:27:53;;;;;;;7.32;1.45;;;18.40;41.70;;;;;;4930738;28;20559;-72
2021/03/29 11:30:19;;;;;;;12.55;2.03;;;18.60;42.30;;;;;;4930458;28;20031;-72
2021/03/29 11:32:46;;;;;;;6.00;1.80;;;18.70;42.70;;;;;;4930833;28;20024;-72
2021/03/29 11:35:12;;;;;;;6.60;1.50;;;18.80;44.30;;;;;;4930817;29;20027;-72
2021/03/29 11:37:38;;;;;;;7.57;1.50;;;19.00;41.40;;;;;;4930892;29;20538;-72
2021/03/29 11:40:05;;;;;;;7.95;1.48;;;18.90;41.40;;;;;;4932037;28;20114;-74
2021/03/29 11:42:30;;;;;;;6.15;1.85;;;18.80;41.70;;;;;;4930460;28;20222;-74
2021/03/29 11:44:56;;;;;;;8.98;1.90;;;19.00;42.30;;;;;;4930751;28;20130;-74
2021/03/29 11:47:21;;;;;;;7.32;1.90;;;19.00;41.00;;;;;;4932133;28;20028;-75
2021/03/29 11:49:48;;;;;;;8.70;1.63;;;19.10;40.70;;;;;;4931792;28;20484;-72
2021/03/29 11:52:14;;;;;;;9.77;2.05;;;19.30;39.60;;;;;;4930286;28;20031;-72
2021/03/29 11:54:40;;;;;;;6.55;1.67;;;19.50;39.60;;;;;;4931783;28;20030;-72
2021/03/29 11:57:06;;;;;;;8.65;2.50;;;19.60;39.60;;;;;;4931735;28;20024;-72
2021/03/29 11:59:32;;;;;;;7.35;2.25;;;19.60;38.90;;;;;;4930423;28;20042;-72
2021/03/29 12:02:07;;;;;;;7.60;1.80;;;19.80;40.60;;;;;;4930423;28;20118;-72
2021/03/29 12:04:42;;;;;;;8.48;1.85;;;20.20;39.60;;;;;;4930624;29;20023;-71
2021/03/29 12:12:40;;;;;;;7.40;2.25;;;22.60;39.00;;;;;;4980894;28;20036;-72
2021/03/29 12:15:15;;;;;;;11.10;1.70;;;23.20;36.30;;;;;;4930557;28;20027;-72
2021/03/29 12:17:44;;;;;;;4.57;1.27;;;23.40;35.20;;;;;;4930341;28;20102;-72
2021/03/29 12:20:13;;;;;;;8.18;1.75;;;23.70;36.50;;;;;;4930207;29;20020;-72
2021/03/29 12:22:40;;;;;;;7.22;2.17;;;23.70;34.40;;;;;;4929998;28;20100;-72
2021/03/29 12:25:06;;;;;;;4.05;1.25;;;23.80;36.50;;;;;;4930193;28;20071;-71
2021/03/29 12:27:32;;;;;;;7.25;1.67;;;24.00;34.70;;;;;;4931087;28;20047;-72
2021/03/29 12:30:04;;;;;;;5.68;2.15;;;24.20;33.80;;;;;;4931748;28;20035;-71
2021/03/29 12:32:30;;;;;;;6.00;2.10;;;24.30;34.90;;;;;;4931105;29;20466;-72
2021/03/29 12:34:58;;;;;;;7.25;1.80;;;24.40;33.50;;;;;;4931326;28;20081;-73
2021/03/29 12:37:28;;;;;;;7.88;2.10;;;24.40;34.00;;;;;;4930076;28;20078;-72
2021/03/29 12:40:02;;;;;;;6.60;2.03;;;24.60;33.80;;;;;;4931351;29;20034;-72
2021/03/29 12:42:31;;;;;;;6.60;2.10;;;25.30;32.80;;;;;;4928825;28;20490;-73
2021/03/29 12:44:57;;;;;;;6.68;1.70;;;25.60;32.60;;;;;;4929932;28;20031;-72
2021/03/29 12:47:27;;;;;;;7.40;2.20;;;26.00;31.60;;;;;;4931015;28;20494;-72
2021/03/29 12:49:53;;;;;;;6.90;1.58;;;25.80;32.40;;;;;;4930968;28;20035;-73
2021/03/29 12:52:19;;;;;;;4.40;1.75;;;25.90;30.90;;;;;;4929612;28;20031;-73
2021/03/29 12:54:46;;;;;;;8.75;1.95;;;25.50;32.40;;;;;;4930995;29;20028;-73
2021/03/29 12:57:11;;;;;;;7.05;2.13;;;25.70;31.70;;;;;;4930818;28;20095;-73
2021/03/29 12:59:37;;;;;;;6.60;1.63;;;26.10;32.30;;;;;;4930944;28;20122;-73
2021/03/29 13:02:03;;;;;;;8.40;1.65;;;26.20;31.30;;;;;;4930699;28;20088;-72
2021/03/29 13:04:39;;;;;;;6.55;1.98;;;26.50;31.50;;;;;;4930795;28;20031;-73